sensor_id;sensor_type;location;lat;lon;timestamp;P1;durP1;ratioP1;P2;durP2;ratioP2
15516;SDS011;7860;52.030;5.572;2023-04-07T00:03:07;23.36;;;11.67;;
15516;SDS011;7860;52.030;5.572;2023-04-07T00:03:07;22.14;;;11.76;;
15516;SDS011;7860;52.030;5.572;2023-04-07T00:03:07;21.57;;;11.21;;
15516;SDS011;7860;52.030;5.572;2023-04-07T00:03:57;22.45;;;11.60;;
15516;SDS011;7860;52.030;5.572;2023-04-07T00:04:57;18.34;;;10.64;;
15516;SDS011;7860;52.030;5.572;2023-04-07T00:05:57;19.28;;;10.46;;
15516;SDS011;7860;52.030;5.572;2023-04-07T00:06:57;21.37;;;10.47;;
15516;SDS011;7860;52.030;5.572;2023-04-07T00:07:57;22.58;;;10.56;;
15516;SDS011;7860;52.030;5.572;2023-04-07T00:08:58;20.44;;;9.97;;
15516;SDS011;7860;52.030;5.572;2023-04-07T00:09:58;18.22;;;9.61;;
15516;SDS011;7860;52.030;5.572;2023-04-07T00:10:58;18.27;;;10.26;;
15516;SDS011;7860;52.030;5.572;2023-04-07T00:11:58;22.07;;;9.77;;
15516;SDS011;7860;52.030;5.572;2023-04-07T00:12:59;18.47;;;10.20;;
15516;SDS011;7860;52.030;5.572;2023-04-07T00:13:58;18.74;;;9.32;;
15516;SDS011;7860;52.030;5.572;2023-04-07T00:15:00;18.78;;;9.35;;
15516;SDS011;7860;52.030;5.572;2023-04-07T00:16:00;18.49;;;8.62;;
15516;SDS011;7860;52.030;5.572;2023-04-07T00:17:00;16.85;;;8.71;;
15516;SDS011;7860;52.030;5.572;2023-04-07T00:18:00;18.28;;;8.62;;
15516;SDS011;7860;52.030;5.572;2023-04-07T00:19:01;19.63;;;8.43;;
15516;SDS011;7860;52.030;5.572;2023-04-07T00:20:02;16.22;;;8.93;;
15516;SDS011;7860;52.030;5.572;2023-04-07T00:21:02;19.31;;;8.78;;
15516;SDS011;7860;52.030;5.572;2023-04-07T00:22:02;16.79;;;8.41;;
15516;SDS011;7860;52.030;5.572;2023-04-07T00:23:02;17.66;;;8.48;;
15516;SDS011;7860;52.030;5.572;2023-04-07T00:24:03;16.12;;;8.06;;
15516;SDS011;7860;52.030;5.572;2023-04-07T00:25:03;16.66;;;7.89;;
15516;SDS011;7860;52.030;5.572;2023-04-07T00:26:03;15.86;;;8.11;;
15516;SDS011;7860;52.030;5.572;2023-04-07T00:27:03;15.54;;;7.54;;
15516;SDS011;7860;52.030;5.572;2023-04-07T00:28:03;17.87;;;8.36;;
15516;SDS011;7860;52.030;5.572;2023-04-07T00:29:04;14.97;;;8.00;;
15516;SDS011;7860;52.030;5.572;2023-04-07T00:30:06;16.30;;;8.14;;
15516;SDS011;7860;52.030;5.572;2023-04-07T00:31:05;15.57;;;7.71;;
15516;SDS011;7860;52.030;5.572;2023-04-07T00:32:06;16.48;;;7.65;;
15516;SDS011;7860;52.030;5.572;2023-04-07T00:33:06;15.88;;;7.51;;
15516;SDS011;7860;52.030;5.572;2023-04-07T00:34:06;20.66;;;8.26;;
15516;SDS011;7860;52.030;5.572;2023-04-07T00:35:07;17.30;;;8.25;;
15516;SDS011;7860;52.030;5.572;2023-04-07T00:36:07;14.92;;;7.65;;
15516;SDS011;7860;52.030;5.572;2023-04-07T00:37:07;14.83;;;7.42;;
15516;SDS011;7860;52.030;5.572;2023-04-07T00:38:08;17.89;;;7.81;;
15516;SDS011;7860;52.030;5.572;2023-04-07T00:39:08;15.06;;;7.88;;
15516;SDS011;7860;52.030;5.572;2023-04-07T00:40:08;18.79;;;7.98;;
15516;SDS011;7860;52.030;5.572;2023-04-07T00:41:09;17.99;;;8.51;;
15516;SDS011;7860;52.030;5.572;2023-04-07T00:42:09;15.00;;;8.36;;
15516;SDS011;7860;52.030;5.572;2023-04-07T00:43:10;15.58;;;8.45;;
15516;SDS011;7860;52.030;5.572;2023-04-07T00:44:10;17.11;;;7.92;;
15516;SDS011;7860;52.030;5.572;2023-04-07T00:45:10;16.88;;;7.99;;
15516;SDS011;7860;52.030;5.572;2023-04-07T00:46:11;17.07;;;8.41;;
15516;SDS011;7860;52.030;5.572;2023-04-07T00:47:11;16.65;;;8.50;;
15516;SDS011;7860;52.030;5.572;2023-04-07T00:48:12;16.01;;;7.79;;
15516;SDS011;7860;52.030;5.572;2023-04-07T00:49:13;13.39;;;7.20;;
15516;SDS011;7860;52.030;5.572;2023-04-07T00:50:13;14.49;;;7.71;;
15516;SDS011;7860;52.030;5.572;2023-04-07T00:51:13;17.00;;;7.79;;
15516;SDS011;7860;52.030;5.572;2023-04-07T00:52:14;14.93;;;7.55;;
15516;SDS011;7860;52.030;5.572;2023-04-07T00:53:14;15.19;;;7.77;;
15516;SDS011;7860;52.030;5.572;2023-04-07T00:54:14;15.63;;;7.41;;
15516;SDS011;7860;52.030;5.572;2023-04-07T00:55:15;15.22;;;7.48;;
15516;SDS011;7860;52.030;5.572;2023-04-07T00:56:15;15.57;;;7.86;;
15516;SDS011;7860;52.030;5.572;2023-04-07T00:57:16;17.16;;;8.21;;
15516;SDS011;7860;52.030;5.572;2023-04-07T00:58:16;16.67;;;8.53;;
15516;SDS011;7860;52.030;5.572;2023-04-07T00:59:17;16.23;;;8.20;;
15516;SDS011;7860;52.030;5.572;2023-04-07T01:00:17;15.81;;;8.04;;
15516;SDS011;7860;52.030;5.572;2023-04-07T01:01:18;14.41;;;7.94;;
15516;SDS011;7860;52.030;5.572;2023-04-07T01:02:20;15.76;;;8.43;;
15516;SDS011;7860;52.030;5.572;2023-04-07T01:03:19;14.87;;;7.98;;
15516;SDS011;7860;52.030;5.572;2023-04-07T01:04:20;15.39;;;7.79;;
15516;SDS011;7860;52.030;5.572;2023-04-07T01:05:20;15.34;;;7.85;;
15516;SDS011;7860;52.030;5.572;2023-04-07T01:06:20;14.19;;;7.89;;
15516;SDS011;7860;52.030;5.572;2023-04-07T01:07:22;15.44;;;8.16;;
15516;SDS011;7860;52.030;5.572;2023-04-07T01:08:20;16.16;;;8.63;;
15516;SDS011;7860;52.030;5.572;2023-04-07T01:09:22;13.99;;;7.94;;
15516;SDS011;7860;52.030;5.572;2023-04-07T01:10:25;15.70;;;8.53;;
15516;SDS011;7860;52.030;5.572;2023-04-07T01:11:22;14.77;;;8.43;;
15516;SDS011;7860;52.030;5.572;2023-04-07T01:12:23;13.59;;;8.46;;
15516;SDS011;7860;52.030;5.572;2023-04-07T01:13:24;15.23;;;8.51;;
15516;SDS011;7860;52.030;5.572;2023-04-07T01:14:22;14.73;;;8.62;;
15516;SDS011;7860;52.030;5.572;2023-04-07T01:15:22;15.58;;;8.80;;
15516;SDS011;7860;52.030;5.572;2023-04-07T01:16:26;15.52;;;8.91;;
15516;SDS011;7860;52.030;5.572;2023-04-07T01:17:24;14.97;;;9.02;;
15516;SDS011;7860;52.030;5.572;2023-04-07T01:18:25;16.42;;;9.50;;
15516;SDS011;7860;52.030;5.572;2023-04-07T01:19:28;15.70;;;9.23;;
15516;SDS011;7860;52.030;5.572;2023-04-07T01:20:24;17.79;;;9.23;;
15516;SDS011;7860;52.030;5.572;2023-04-07T01:21:26;17.12;;;9.75;;
15516;SDS011;7860;52.030;5.572;2023-04-07T01:22:26;16.92;;;9.44;;
15516;SDS011;7860;52.030;5.572;2023-04-07T01:23:27;17.97;;;9.92;;
15516;SDS011;7860;52.030;5.572;2023-04-07T01:24:33;18.56;;;9.95;;
15516;SDS011;7860;52.030;5.572;2023-04-07T01:25:34;17.22;;;9.75;;
15516;SDS011;7860;52.030;5.572;2023-04-07T01:26:27;17.12;;;9.83;;
15516;SDS011;7860;52.030;5.572;2023-04-07T01:27:31;16.21;;;9.48;;
15516;SDS011;7860;52.030;5.572;2023-04-07T01:28:35;14.84;;;8.91;;
15516;SDS011;7860;52.030;5.572;2023-04-07T01:29:29;17.19;;;9.10;;
15516;SDS011;7860;52.030;5.572;2023-04-07T01:30:30;16.47;;;9.20;;
15516;SDS011;7860;52.030;5.572;2023-04-07T01:31:30;17.82;;;9.11;;
15516;SDS011;7860;52.030;5.572;2023-04-07T01:32:30;16.24;;;9.36;;
15516;SDS011;7860;52.030;5.572;2023-04-07T01:33:30;15.61;;;8.73;;
15516;SDS011;7860;52.030;5.572;2023-04-07T01:34:31;16.80;;;9.13;;
15516;SDS011;7860;52.030;5.572;2023-04-07T01:35:34;16.87;;;9.26;;
15516;SDS011;7860;52.030;5.572;2023-04-07T01:36:32;18.25;;;9.14;;
15516;SDS011;7860;52.030;5.572;2023-04-07T01:37:32;16.62;;;8.99;;
15516;SDS011;7860;52.030;5.572;2023-04-07T01:38:33;15.45;;;8.72;;
15516;SDS011;7860;52.030;5.572;2023-04-07T01:39:33;16.97;;;9.13;;
15516;SDS011;7860;52.030;5.572;2023-04-07T01:40:34;17.00;;;8.93;;
15516;SDS011;7860;52.030;5.572;2023-04-07T01:41:34;15.38;;;8.79;;
15516;SDS011;7860;52.030;5.572;2023-04-07T01:42:35;17.28;;;9.25;;
15516;SDS011;7860;52.030;5.572;2023-04-07T01:43:35;15.77;;;8.86;;
15516;SDS011;7860;52.030;5.572;2023-04-07T01:44:35;17.95;;;9.12;;
15516;SDS011;7860;52.030;5.572;2023-04-07T01:45:36;16.75;;;8.94;;
15516;SDS011;7860;52.030;5.572;2023-04-07T01:46:36;17.86;;;9.14;;
15516;SDS011;7860;52.030;5.572;2023-04-07T01:47:37;16.94;;;9.19;;
15516;SDS011;7860;52.030;5.572;2023-04-07T01:48:38;16.64;;;8.62;;
15516;SDS011;7860;52.030;5.572;2023-04-07T01:49:38;17.04;;;9.02;;
15516;SDS011;7860;52.030;5.572;2023-04-07T01:50:38;17.53;;;9.73;;
15516;SDS011;7860;52.030;5.572;2023-04-07T01:51:39;18.12;;;9.36;;
15516;SDS011;7860;52.030;5.572;2023-04-07T01:52:39;16.26;;;9.68;;
15516;SDS011;7860;52.030;5.572;2023-04-07T01:53:40;17.97;;;9.92;;
15516;SDS011;7860;52.030;5.572;2023-04-07T01:54:40;17.56;;;9.80;;
15516;SDS011;7860;52.030;5.572;2023-04-07T01:55:41;20.11;;;9.20;;
15516;SDS011;7860;52.030;5.572;2023-04-07T01:56:41;19.05;;;9.32;;
15516;SDS011;7860;52.030;5.572;2023-04-07T01:57:42;17.26;;;9.62;;
15516;SDS011;7860;52.030;5.572;2023-04-07T01:58:42;18.71;;;9.91;;
15516;SDS011;7860;52.030;5.572;2023-04-07T01:59:43;17.66;;;10.08;;
15516;SDS011;7860;52.030;5.572;2023-04-07T02:00:43;19.88;;;10.27;;
15516;SDS011;7860;52.030;5.572;2023-04-07T02:01:44;19.94;;;9.97;;
15516;SDS011;7860;52.030;5.572;2023-04-07T02:02:45;18.10;;;10.11;;
15516;SDS011;7860;52.030;5.572;2023-04-07T02:03:46;18.02;;;9.64;;
15516;SDS011;7860;52.030;5.572;2023-04-07T02:04:47;20.77;;;10.16;;
15516;SDS011;7860;52.030;5.572;2023-04-07T02:05:46;16.88;;;9.55;;
15516;SDS011;7860;52.030;5.572;2023-04-07T02:06:46;18.63;;;10.32;;
15516;SDS011;7860;52.030;5.572;2023-04-07T02:07:47;18.05;;;9.86;;
15516;SDS011;7860;52.030;5.572;2023-04-07T02:08:49;19.86;;;10.04;;
15516;SDS011;7860;52.030;5.572;2023-04-07T02:09:47;17.39;;;10.10;;
15516;SDS011;7860;52.030;5.572;2023-04-07T02:10:47;18.87;;;9.47;;
15516;SDS011;7860;52.030;5.572;2023-04-07T02:11:48;18.88;;;9.23;;
15516;SDS011;7860;52.030;5.572;2023-04-07T02:12:48;20.15;;;10.59;;
15516;SDS011;7860;52.030;5.572;2023-04-07T02:13:48;17.36;;;9.60;;
15516;SDS011;7860;52.030;5.572;2023-04-07T02:14:49;16.88;;;9.50;;
15516;SDS011;7860;52.030;5.572;2023-04-07T02:15:50;20.02;;;9.57;;
15516;SDS011;7860;52.030;5.572;2023-04-07T02:16:50;19.96;;;9.49;;
15516;SDS011;7860;52.030;5.572;2023-04-07T02:17:52;17.70;;;9.29;;
15516;SDS011;7860;52.030;5.572;2023-04-07T02:18:51;18.45;;;9.78;;
15516;SDS011;7860;52.030;5.572;2023-04-07T02:19:52;19.28;;;9.72;;
15516;SDS011;7860;52.030;5.572;2023-04-07T02:20:52;19.65;;;9.95;;
15516;SDS011;7860;52.030;5.572;2023-04-07T02:21:52;19.28;;;10.50;;
15516;SDS011;7860;52.030;5.572;2023-04-07T02:22:52;19.03;;;10.00;;
15516;SDS011;7860;52.030;5.572;2023-04-07T02:23:52;18.80;;;10.25;;
15516;SDS011;7860;52.030;5.572;2023-04-07T02:24:53;20.49;;;10.23;;
15516;SDS011;7860;52.030;5.572;2023-04-07T02:25:54;18.00;;;10.57;;
15516;SDS011;7860;52.030;5.572;2023-04-07T02:26:54;20.04;;;10.66;;
15516;SDS011;7860;52.030;5.572;2023-04-07T02:27:56;21.86;;;11.06;;
15516;SDS011;7860;52.030;5.572;2023-04-07T02:28:55;19.82;;;10.50;;
15516;SDS011;7860;52.030;5.572;2023-04-07T02:29:55;24.08;;;11.19;;
15516;SDS011;7860;52.030;5.572;2023-04-07T02:30:56;21.87;;;11.16;;
15516;SDS011;7860;52.030;5.572;2023-04-07T02:31:57;21.47;;;10.89;;
15516;SDS011;7860;52.030;5.572;2023-04-07T02:32:57;21.53;;;10.90;;
15516;SDS011;7860;52.030;5.572;2023-04-07T02:33:58;23.15;;;11.97;;
15516;SDS011;7860;52.030;5.572;2023-04-07T02:34:58;19.97;;;11.34;;
15516;SDS011;7860;52.030;5.572;2023-04-07T02:35:59;20.85;;;11.23;;
15516;SDS011;7860;52.030;5.572;2023-04-07T02:36:59;21.70;;;11.87;;
15516;SDS011;7860;52.030;5.572;2023-04-07T02:37:59;20.60;;;11.21;;
15516;SDS011;7860;52.030;5.572;2023-04-07T02:39:01;22.04;;;12.01;;
15516;SDS011;7860;52.030;5.572;2023-04-07T02:40:00;21.28;;;11.85;;
15516;SDS011;7860;52.030;5.572;2023-04-07T02:41:01;22.75;;;12.35;;
15516;SDS011;7860;52.030;5.572;2023-04-07T02:42:01;20.99;;;11.53;;
15516;SDS011;7860;52.030;5.572;2023-04-07T02:43:02;19.46;;;12.07;;
15516;SDS011;7860;52.030;5.572;2023-04-07T02:44:02;19.50;;;11.06;;
15516;SDS011;7860;52.030;5.572;2023-04-07T02:45:03;21.27;;;11.52;;
15516;SDS011;7860;52.030;5.572;2023-04-07T02:46:03;22.93;;;12.16;;
15516;SDS011;7860;52.030;5.572;2023-04-07T02:47:04;23.45;;;11.52;;
15516;SDS011;7860;52.030;5.572;2023-04-07T02:48:04;21.77;;;11.26;;
15516;SDS011;7860;52.030;5.572;2023-04-07T02:49:05;19.62;;;11.40;;
15516;SDS011;7860;52.030;5.572;2023-04-07T02:50:05;20.47;;;11.41;;
15516;SDS011;7860;52.030;5.572;2023-04-07T02:51:05;20.63;;;11.89;;
15516;SDS011;7860;52.030;5.572;2023-04-07T02:52:06;25.04;;;11.86;;
15516;SDS011;7860;52.030;5.572;2023-04-07T02:53:06;20.64;;;12.14;;
15516;SDS011;7860;52.030;5.572;2023-04-07T02:54:06;19.71;;;11.76;;
15516;SDS011;7860;52.030;5.572;2023-04-07T02:55:07;22.49;;;12.07;;
15516;SDS011;7860;52.030;5.572;2023-04-07T02:56:07;20.68;;;11.50;;
15516;SDS011;7860;52.030;5.572;2023-04-07T02:57:07;22.51;;;11.86;;
15516;SDS011;7860;52.030;5.572;2023-04-07T02:58:08;21.32;;;11.75;;
15516;SDS011;7860;52.030;5.572;2023-04-07T02:59:08;24.53;;;11.68;;
15516;SDS011;7860;52.030;5.572;2023-04-07T03:00:08;23.21;;;12.12;;
15516;SDS011;7860;52.030;5.572;2023-04-07T03:01:09;22.34;;;11.80;;
15516;SDS011;7860;52.030;5.572;2023-04-07T03:02:09;23.18;;;11.74;;
15516;SDS011;7860;52.030;5.572;2023-04-07T03:03:09;20.81;;;11.54;;
15516;SDS011;7860;52.030;5.572;2023-04-07T03:04:10;23.71;;;11.93;;
15516;SDS011;7860;52.030;5.572;2023-04-07T03:05:10;22.56;;;11.46;;
15516;SDS011;7860;52.030;5.572;2023-04-07T03:06:10;22.94;;;11.55;;
15516;SDS011;7860;52.030;5.572;2023-04-07T03:07:11;24.22;;;11.89;;
15516;SDS011;7860;52.030;5.572;2023-04-07T03:08:11;25.03;;;11.98;;
15516;SDS011;7860;52.030;5.572;2023-04-07T03:09:11;26.43;;;11.61;;
15516;SDS011;7860;52.030;5.572;2023-04-07T03:10:12;23.78;;;11.86;;
15516;SDS011;7860;52.030;5.572;2023-04-07T03:11:12;23.50;;;11.54;;
15516;SDS011;7860;52.030;5.572;2023-04-07T03:12:12;24.52;;;12.39;;
15516;SDS011;7860;52.030;5.572;2023-04-07T03:13:13;24.87;;;12.06;;
15516;SDS011;7860;52.030;5.572;2023-04-07T03:14:13;23.87;;;11.36;;
15516;SDS011;7860;52.030;5.572;2023-04-07T03:15:13;25.64;;;12.19;;
15516;SDS011;7860;52.030;5.572;2023-04-07T03:16:14;23.44;;;12.43;;
15516;SDS011;7860;52.030;5.572;2023-04-07T03:17:14;24.08;;;12.09;;
15516;SDS011;7860;52.030;5.572;2023-04-07T03:18:14;20.81;;;11.57;;
15516;SDS011;7860;52.030;5.572;2023-04-07T03:19:15;24.58;;;11.91;;
15516;SDS011;7860;52.030;5.572;2023-04-07T03:20:15;24.52;;;12.14;;
15516;SDS011;7860;52.030;5.572;2023-04-07T03:21:16;26.71;;;11.85;;
15516;SDS011;7860;52.030;5.572;2023-04-07T03:22:16;22.70;;;11.52;;
15516;SDS011;7860;52.030;5.572;2023-04-07T03:23:16;23.01;;;12.27;;
15516;SDS011;7860;52.030;5.572;2023-04-07T03:24:17;24.31;;;11.78;;
15516;SDS011;7860;52.030;5.572;2023-04-07T03:25:17;25.24;;;11.96;;
15516;SDS011;7860;52.030;5.572;2023-04-07T03:26:17;25.63;;;11.53;;
15516;SDS011;7860;52.030;5.572;2023-04-07T03:27:18;24.26;;;12.08;;
15516;SDS011;7860;52.030;5.572;2023-04-07T03:28:18;24.10;;;11.17;;
15516;SDS011;7860;52.030;5.572;2023-04-07T03:29:18;26.20;;;11.42;;
15516;SDS011;7860;52.030;5.572;2023-04-07T03:30:18;25.19;;;12.14;;
15516;SDS011;7860;52.030;5.572;2023-04-07T03:31:18;24.39;;;12.14;;
15516;SDS011;7860;52.030;5.572;2023-04-07T03:32:19;29.20;;;12.49;;
15516;SDS011;7860;52.030;5.572;2023-04-07T03:33:19;26.92;;;11.98;;
15516;SDS011;7860;52.030;5.572;2023-04-07T03:34:19;26.90;;;11.88;;
15516;SDS011;7860;52.030;5.572;2023-04-07T03:35:19;24.63;;;11.78;;
15516;SDS011;7860;52.030;5.572;2023-04-07T03:36:20;30.16;;;12.19;;
15516;SDS011;7860;52.030;5.572;2023-04-07T03:37:20;23.26;;;12.05;;
15516;SDS011;7860;52.030;5.572;2023-04-07T03:38:20;23.20;;;11.57;;
15516;SDS011;7860;52.030;5.572;2023-04-07T03:39:21;25.42;;;11.39;;
15516;SDS011;7860;52.030;5.572;2023-04-07T03:40:21;26.73;;;11.75;;
15516;SDS011;7860;52.030;5.572;2023-04-07T03:41:21;26.31;;;11.56;;
15516;SDS011;7860;52.030;5.572;2023-04-07T03:42:22;25.43;;;11.72;;
15516;SDS011;7860;52.030;5.572;2023-04-07T03:43:22;27.12;;;11.98;;
15516;SDS011;7860;52.030;5.572;2023-04-07T03:44:23;25.47;;;11.78;;
15516;SDS011;7860;52.030;5.572;2023-04-07T03:45:23;26.67;;;12.14;;
15516;SDS011;7860;52.030;5.572;2023-04-07T03:46:24;23.79;;;11.00;;
15516;SDS011;7860;52.030;5.572;2023-04-07T03:47:24;26.16;;;12.03;;
15516;SDS011;7860;52.030;5.572;2023-04-07T03:48:25;23.40;;;11.02;;
15516;SDS011;7860;52.030;5.572;2023-04-07T03:49:26;23.91;;;11.99;;
15516;SDS011;7860;52.030;5.572;2023-04-07T03:50:26;24.67;;;11.56;;
15516;SDS011;7860;52.030;5.572;2023-04-07T03:51:26;27.44;;;11.96;;
15516;SDS011;7860;52.030;5.572;2023-04-07T03:52:27;24.27;;;10.87;;
15516;SDS011;7860;52.030;5.572;2023-04-07T03:53:27;23.01;;;11.06;;
15516;SDS011;7860;52.030;5.572;2023-04-07T03:54:28;24.33;;;11.07;;
15516;SDS011;7860;52.030;5.572;2023-04-07T03:55:28;22.82;;;10.50;;
15516;SDS011;7860;52.030;5.572;2023-04-07T03:56:28;24.75;;;10.50;;
15516;SDS011;7860;52.030;5.572;2023-04-07T03:57:29;26.46;;;10.96;;
15516;SDS011;7860;52.030;5.572;2023-04-07T03:58:30;23.70;;;10.47;;
15516;SDS011;7860;52.030;5.572;2023-04-07T03:59:30;23.32;;;10.91;;
15516;SDS011;7860;52.030;5.572;2023-04-07T04:00:31;24.47;;;11.31;;
15516;SDS011;7860;52.030;5.572;2023-04-07T04:01:31;26.60;;;11.22;;
15516;SDS011;7860;52.030;5.572;2023-04-07T04:02:31;26.86;;;11.03;;
15516;SDS011;7860;52.030;5.572;2023-04-07T04:03:32;24.52;;;10.15;;
15516;SDS011;7860;52.030;5.572;2023-04-07T04:04:32;27.51;;;11.05;;
15516;SDS011;7860;52.030;5.572;2023-04-07T04:05:33;26.52;;;10.68;;
15516;SDS011;7860;52.030;5.572;2023-04-07T04:06:33;25.53;;;10.74;;
15516;SDS011;7860;52.030;5.572;2023-04-07T04:07:33;24.90;;;10.75;;
15516;SDS011;7860;52.030;5.572;2023-04-07T04:08:33;24.31;;;10.23;;
15516;SDS011;7860;52.030;5.572;2023-04-07T04:09:34;27.19;;;11.67;;
15516;SDS011;7860;52.030;5.572;2023-04-07T04:10:34;24.85;;;10.60;;
15516;SDS011;7860;52.030;5.572;2023-04-07T04:11:35;22.84;;;10.31;;
15516;SDS011;7860;52.030;5.572;2023-04-07T04:12:35;27.89;;;10.81;;
15516;SDS011;7860;52.030;5.572;2023-04-07T04:13:35;28.51;;;10.98;;
15516;SDS011;7860;52.030;5.572;2023-04-07T04:14:36;27.49;;;10.59;;
15516;SDS011;7860;52.030;5.572;2023-04-07T04:15:36;23.95;;;10.30;;
15516;SDS011;7860;52.030;5.572;2023-04-07T04:16:36;25.98;;;10.65;;
15516;SDS011;7860;52.030;5.572;2023-04-07T04:17:37;26.53;;;10.80;;
15516;SDS011;7860;52.030;5.572;2023-04-07T04:18:37;24.68;;;10.80;;
15516;SDS011;7860;52.030;5.572;2023-04-07T04:19:37;26.48;;;11.33;;
15516;SDS011;7860;52.030;5.572;2023-04-07T04:20:37;22.44;;;10.47;;
15516;SDS011;7860;52.030;5.572;2023-04-07T04:21:37;26.31;;;10.88;;
15516;SDS011;7860;52.030;5.572;2023-04-07T04:22:38;25.64;;;10.69;;
15516;SDS011;7860;52.030;5.572;2023-04-07T04:23:38;25.04;;;10.63;;
15516;SDS011;7860;52.030;5.572;2023-04-07T04:24:39;28.01;;;11.30;;
15516;SDS011;7860;52.030;5.572;2023-04-07T04:25:39;22.45;;;10.79;;
15516;SDS011;7860;52.030;5.572;2023-04-07T04:26:39;26.04;;;10.84;;
15516;SDS011;7860;52.030;5.572;2023-04-07T04:27:39;23.69;;;9.90;;
15516;SDS011;7860;52.030;5.572;2023-04-07T04:28:39;23.90;;;10.28;;
15516;SDS011;7860;52.030;5.572;2023-04-07T04:29:39;23.01;;;10.56;;
15516;SDS011;7860;52.030;5.572;2023-04-07T04:30:40;23.13;;;10.90;;
15516;SDS011;7860;52.030;5.572;2023-04-07T04:31:40;23.95;;;10.83;;
15516;SDS011;7860;52.030;5.572;2023-04-07T04:32:40;25.21;;;10.85;;
15516;SDS011;7860;52.030;5.572;2023-04-07T04:33:40;23.56;;;10.02;;
15516;SDS011;7860;52.030;5.572;2023-04-07T04:34:40;22.19;;;10.47;;
15516;SDS011;7860;52.030;5.572;2023-04-07T04:35:40;26.64;;;10.24;;
15516;SDS011;7860;52.030;5.572;2023-04-07T04:36:41;24.10;;;10.80;;
15516;SDS011;7860;52.030;5.572;2023-04-07T04:37:41;22.71;;;10.12;;
15516;SDS011;7860;52.030;5.572;2023-04-07T04:38:41;23.52;;;10.25;;
15516;SDS011;7860;52.030;5.572;2023-04-07T04:39:42;21.43;;;9.21;;
15516;SDS011;7860;52.030;5.572;2023-04-07T04:40:43;25.19;;;10.37;;
15516;SDS011;7860;52.030;5.572;2023-04-07T04:41:43;25.35;;;10.38;;
15516;SDS011;7860;52.030;5.572;2023-04-07T04:42:44;20.92;;;10.28;;
15516;SDS011;7860;52.030;5.572;2023-04-07T04:43:44;23.83;;;9.88;;
15516;SDS011;7860;52.030;5.572;2023-04-07T04:44:44;26.51;;;10.46;;
15516;SDS011;7860;52.030;5.572;2023-04-07T04:45:46;22.31;;;10.47;;
15516;SDS011;7860;52.030;5.572;2023-04-07T04:46:45;23.40;;;10.21;;
15516;SDS011;7860;52.030;5.572;2023-04-07T04:47:45;26.13;;;9.73;;
15516;SDS011;7860;52.030;5.572;2023-04-07T04:48:46;27.14;;;9.87;;
15516;SDS011;7860;52.030;5.572;2023-04-07T04:49:46;23.20;;;9.64;;
15516;SDS011;7860;52.030;5.572;2023-04-07T04:50:47;27.30;;;10.26;;
15516;SDS011;7860;52.030;5.572;2023-04-07T04:51:47;27.30;;;10.33;;
15516;SDS011;7860;52.030;5.572;2023-04-07T04:52:47;25.77;;;10.35;;
15516;SDS011;7860;52.030;5.572;2023-04-07T04:53:48;25.67;;;10.33;;
15516;SDS011;7860;52.030;5.572;2023-04-07T04:54:48;23.13;;;10.83;;
15516;SDS011;7860;52.030;5.572;2023-04-07T04:55:49;22.67;;;9.82;;
15516;SDS011;7860;52.030;5.572;2023-04-07T04:56:49;22.77;;;9.73;;
15516;SDS011;7860;52.030;5.572;2023-04-07T04:57:49;21.10;;;9.90;;
15516;SDS011;7860;52.030;5.572;2023-04-07T04:58:49;23.12;;;9.81;;
15516;SDS011;7860;52.030;5.572;2023-04-07T04:59:50;27.01;;;10.19;;
15516;SDS011;7860;52.030;5.572;2023-04-07T05:00:52;24.55;;;10.09;;
15516;SDS011;7860;52.030;5.572;2023-04-07T05:01:51;23.25;;;10.19;;
15516;SDS011;7860;52.030;5.572;2023-04-07T05:02:51;24.38;;;10.42;;
15516;SDS011;7860;52.030;5.572;2023-04-07T05:03:52;24.68;;;10.00;;
15516;SDS011;7860;52.030;5.572;2023-04-07T05:04:52;23.74;;;9.71;;
15516;SDS011;7860;52.030;5.572;2023-04-07T05:05:53;24.70;;;9.72;;
15516;SDS011;7860;52.030;5.572;2023-04-07T05:06:54;22.15;;;9.82;;
15516;SDS011;7860;52.030;5.572;2023-04-07T05:07:54;23.67;;;9.96;;
15516;SDS011;7860;52.030;5.572;2023-04-07T05:08:55;21.05;;;9.91;;
15516;SDS011;7860;52.030;5.572;2023-04-07T05:09:56;24.86;;;10.15;;
15516;SDS011;7860;52.030;5.572;2023-04-07T05:10:56;22.65;;;10.14;;
15516;SDS011;7860;52.030;5.572;2023-04-07T05:11:57;23.28;;;10.32;;
15516;SDS011;7860;52.030;5.572;2023-04-07T05:12:58;21.70;;;10.41;;
15516;SDS011;7860;52.030;5.572;2023-04-07T05:13:58;21.93;;;9.80;;
15516;SDS011;7860;52.030;5.572;2023-04-07T05:14:58;21.24;;;9.69;;
15516;SDS011;7860;52.030;5.572;2023-04-07T05:15:59;23.71;;;10.02;;
15516;SDS011;7860;52.030;5.572;2023-04-07T05:17:00;20.46;;;9.90;;
15516;SDS011;7860;52.030;5.572;2023-04-07T05:18:00;22.54;;;10.44;;
15516;SDS011;7860;52.030;5.572;2023-04-07T05:19:00;22.44;;;10.32;;
15516;SDS011;7860;52.030;5.572;2023-04-07T05:20:01;20.99;;;9.22;;
15516;SDS011;7860;52.030;5.572;2023-04-07T05:21:01;22.42;;;9.94;;
15516;SDS011;7860;52.030;5.572;2023-04-07T05:22:01;23.38;;;10.14;;
15516;SDS011;7860;52.030;5.572;2023-04-07T05:23:02;21.34;;;9.92;;
15516;SDS011;7860;52.030;5.572;2023-04-07T05:24:03;21.67;;;9.27;;
15516;SDS011;7860;52.030;5.572;2023-04-07T05:25:03;23.36;;;10.18;;
15516;SDS011;7860;52.030;5.572;2023-04-07T05:26:04;22.78;;;9.68;;
15516;SDS011;7860;52.030;5.572;2023-04-07T05:27:04;18.90;;;9.22;;
15516;SDS011;7860;52.030;5.572;2023-04-07T05:28:05;21.58;;;9.59;;
15516;SDS011;7860;52.030;5.572;2023-04-07T05:29:05;22.03;;;8.96;;
15516;SDS011;7860;52.030;5.572;2023-04-07T05:30:05;24.48;;;9.47;;
15516;SDS011;7860;52.030;5.572;2023-04-07T05:31:06;19.79;;;9.26;;
15516;SDS011;7860;52.030;5.572;2023-04-07T05:32:06;22.72;;;9.38;;
15516;SDS011;7860;52.030;5.572;2023-04-07T05:33:07;20.61;;;9.81;;
15516;SDS011;7860;52.030;5.572;2023-04-07T05:34:07;24.90;;;9.52;;
15516;SDS011;7860;52.030;5.572;2023-04-07T05:35:07;21.44;;;9.43;;
15516;SDS011;7860;52.030;5.572;2023-04-07T05:36:08;23.52;;;10.35;;
15516;SDS011;7860;52.030;5.572;2023-04-07T05:37:08;23.25;;;10.17;;
15516;SDS011;7860;52.030;5.572;2023-04-07T05:38:08;21.92;;;10.14;;
15516;SDS011;7860;52.030;5.572;2023-04-07T05:39:08;21.27;;;9.05;;
15516;SDS011;7860;52.030;5.572;2023-04-07T05:40:09;18.58;;;9.66;;
15516;SDS011;7860;52.030;5.572;2023-04-07T05:41:09;23.70;;;9.91;;
15516;SDS011;7860;52.030;5.572;2023-04-07T05:42:09;20.08;;;9.85;;
15516;SDS011;7860;52.030;5.572;2023-04-07T05:43:09;21.28;;;9.74;;
15516;SDS011;7860;52.030;5.572;2023-04-07T05:44:09;20.78;;;10.03;;
15516;SDS011;7860;52.030;5.572;2023-04-07T05:45:10;23.53;;;9.13;;
15516;SDS011;7860;52.030;5.572;2023-04-07T05:46:10;21.45;;;9.67;;
15516;SDS011;7860;52.030;5.572;2023-04-07T05:47:10;18.59;;;9.33;;
15516;SDS011;7860;52.030;5.572;2023-04-07T05:48:11;22.12;;;10.07;;
15516;SDS011;7860;52.030;5.572;2023-04-07T05:49:11;20.86;;;9.71;;
15516;SDS011;7860;52.030;5.572;2023-04-07T05:50:11;20.41;;;9.19;;
15516;SDS011;7860;52.030;5.572;2023-04-07T05:51:11;17.74;;;9.24;;
15516;SDS011;7860;52.030;5.572;2023-04-07T05:52:13;21.40;;;9.43;;
15516;SDS011;7860;52.030;5.572;2023-04-07T05:53:14;20.09;;;9.42;;
15516;SDS011;7860;52.030;5.572;2023-04-07T05:54:13;16.34;;;9.08;;
15516;SDS011;7860;52.030;5.572;2023-04-07T05:55:13;21.16;;;9.25;;
15516;SDS011;7860;52.030;5.572;2023-04-07T05:56:14;21.13;;;9.08;;
15516;SDS011;7860;52.030;5.572;2023-04-07T05:57:14;22.38;;;9.21;;
15516;SDS011;7860;52.030;5.572;2023-04-07T05:58:14;20.55;;;9.43;;
15516;SDS011;7860;52.030;5.572;2023-04-07T05:59:14;19.23;;;9.03;;
15516;SDS011;7860;52.030;5.572;2023-04-07T06:00:15;19.83;;;9.83;;
15516;SDS011;7860;52.030;5.572;2023-04-07T06:01:16;20.26;;;9.30;;